Nueces — WDC2624 — position and weather

sailwx.info

Track history (hours):
 
Tides and Currents Weather Stations Pressure Air Temp Water Temp Dewpoint Dewpoint Depression Visibility Wind Speed Wind Dir Waves Ship Positions

Nueces

Owner: Kirby Inland Marine LP, Houston, TX. More information available from US FCC via Universal Licensing System and Coast Guard Vessel Documentation Center.

Last reported at 2017-Nov-24 06:00 UTC. Time now 2017-Nov-25 00:08 UTC.
Position N 29°30' W 094°52'.

Length 109 m; draft 2.9 m.

Type: . MMSI: 366995720.

Date/timePositionNaut miles runAvg speedWind from/ knotsBaromVisibWave heightAir tempDewpointWater temp
2017-Nov-24 06:00N 29°30' W 094°52'3 6.2
2017-Nov-24 05:30N 29°33' W 094°54'3 6.3
2017-Nov-24 05:00N 29°35' W 094°56'3 6.5
2017-Nov-24 04:30N 29°38' W 094°58'3 6.5
2017-Nov-24 04:00N 29°41' W 094°59'2 4.6
2017-Nov-24 03:30N 29°43' W 095°01'3 5.1
2017-Nov-24 02:59N 29°44' W 095°04'3 5.0
2017-Nov-24 02:28N 29°47' W 095°05'0 1.0
2017-Nov-24 02:00N 29°47' W 095°04'0 0.0
2017-Nov-24 01:31N 29°47' W 095°04'1 2.0
2017-Nov-24 00:51N 29°46' W 095°05'1 0.7
2017-Nov-23 23:24N 29°45' W 095°06'0 0.1
2017-Nov-23 21:45N 29°45' W 095°06'0 0.4
2017-Nov-23 20:42N 29°46' W 095°06'0 0.2
2017-Nov-23 20:20N 29°46' W 095°06'1 1.1
2017-Nov-23 19:42N 29°46' W 095°05'1 4.2
2017-Nov-23 19:30N 29°45' W 095°04'2 4.3
2017-Nov-23 18:56N 29°44' W 095°02'2 4.2
2017-Nov-23 18:30N 29°42' W 095°01'2 4.5
2017-Nov-23 18:00N 29°41' W 094°59'2 4.6
2017-Nov-23 17:30N 29°39' W 094°58'3 5.6
2017-Nov-23 16:59N 29°36' W 094°57'3 5.6
2017-Nov-23 16:30N 29°34' W 094°55'3 5.2
2017-Nov-23 16:00N 29°31' W 094°53'  
2017-Nov-19 11:39N 29°47' W 095°04'0 0.0
2017-Nov-19 11:28N 29°47' W 095°04'0 0.0
2017-Nov-19 11:00N 29°47' W 095°04'0 0.0
2017-Nov-19 08:48N 29°47' W 095°04'0 0.0
2017-Nov-19 08:18N 29°47' W 095°04'0 0.0
2017-Nov-19 07:51N 29°47' W 095°04'0 0.0
2017-Nov-19 06:49N 29°47' W 095°04'4 0.4
2017-Nov-18 20:26N 29°44' W 095°08'2 0.4
2017-Nov-18 14:44N 29°45' W 095°06'1 2.3
2017-Nov-18 14:25N 29°45' W 095°06'0 0.0
2017-Nov-17 11:50N 29°45' W 095°06'0 0.1
2017-Nov-17 11:27N 29°45' W 095°06'1 2.7
2017-Nov-17 10:59N 29°46' W 095°05'0 0.0
2017-Nov-17 01:14N 29°46' W 095°06'0 1.0
2017-Nov-17 00:55N 29°46' W 095°05'1 3.3
2017-Nov-17 00:29N 29°45' W 095°04'2 4.8
2017-Nov-17 00:00N 29°44' W 095°02'2 4.6
2017-Nov-16 23:30N 29°42' W 095°00'3 5.1
2017-Nov-16 23:00N 29°40' W 094°59'3 5.3
2017-Nov-16 22:29N 29°37' W 094°58'2 5.0
2017-Nov-16 22:00N 29°35' W 094°56'3 5.3
2017-Nov-16 21:30N 29°33' W 094°55'3 5.6
2017-Nov-16 21:00N 29°31' W 094°53'  
Track history (hours):
 
Tides and Currents Weather Stations Pressure Air Temp Water Temp Dewpoint Dewpoint Depression Visibility Wind Speed Wind Dir Waves Ship Positions

Nueces

Owner: Kirby Inland Marine LP, Houston, TX. More information available from US FCC via Universal Licensing System and Coast Guard Vessel Documentation Center.

Last reported at 2017-Nov-24 06:00 UTC. Time now 2017-Nov-25 00:08 UTC.
Position N 29°30' W 094°52'.

Length 109 m; draft 2.9 m.

Type: . MMSI: 366995720.

Date/timePositionNaut miles runAvg speedWind from/ knotsBaromVisibWave heightAir tempDewpointWater temp
2017-Nov-24 06:00N 29°30' W 094°52'3 6.2
2017-Nov-24 05:30N 29°33' W 094°54'3 6.3
2017-Nov-24 05:00N 29°35' W 094°56'3 6.5
2017-Nov-24 04:30N 29°38' W 094°58'3 6.5
2017-Nov-24 04:00N 29°41' W 094°59'2 4.6
2017-Nov-24 03:30N 29°43' W 095°01'3 5.1
2017-Nov-24 02:59N 29°44' W 095°04'3 5.0
2017-Nov-24 02:28N 29°47' W 095°05'0 1.0
2017-Nov-24 02:00N 29°47' W 095°04'0 0.0
2017-Nov-24 01:31N 29°47' W 095°04'1 2.0
2017-Nov-24 00:51N 29°46' W 095°05'1 0.7
2017-Nov-23 23:24N 29°45' W 095°06'0 0.1
2017-Nov-23 21:45N 29°45' W 095°06'0 0.4
2017-Nov-23 20:42N 29°46' W 095°06'0 0.2
2017-Nov-23 20:20N 29°46' W 095°06'1 1.1
2017-Nov-23 19:42N 29°46' W 095°05'1 4.2
2017-Nov-23 19:30N 29°45' W 095°04'2 4.3
2017-Nov-23 18:56N 29°44' W 095°02'2 4.2
2017-Nov-23 18:30N 29°42' W 095°01'2 4.5
2017-Nov-23 18:00N 29°41' W 094°59'2 4.6
2017-Nov-23 17:30N 29°39' W 094°58'3 5.6
2017-Nov-23 16:59N 29°36' W 094°57'3 5.6
2017-Nov-23 16:30N 29°34' W 094°55'3 5.2
2017-Nov-23 16:00N 29°31' W 094°53'  
2017-Nov-19 11:39N 29°47' W 095°04'0 0.0
2017-Nov-19 11:28N 29°47' W 095°04'0 0.0
2017-Nov-19 11:00N 29°47' W 095°04'0 0.0
2017-Nov-19 08:48N 29°47' W 095°04'0 0.0
2017-Nov-19 08:18N 29°47' W 095°04'0 0.0
2017-Nov-19 07:51N 29°47' W 095°04'0 0.0
2017-Nov-19 06:49N 29°47' W 095°04'4 0.4
2017-Nov-18 20:26N 29°44' W 095°08'2 0.4
2017-Nov-18 14:44N 29°45' W 095°06'1 2.3
2017-Nov-18 14:25N 29°45' W 095°06'0 0.0
2017-Nov-17 11:50N 29°45' W 095°06'0 0.1
2017-Nov-17 11:27N 29°45' W 095°06'1 2.7
2017-Nov-17 10:59N 29°46' W 095°05'0 0.0
2017-Nov-17 01:14N 29°46' W 095°06'0 1.0
2017-Nov-17 00:55N 29°46' W 095°05'1 3.3
2017-Nov-17 00:29N 29°45' W 095°04'2 4.8
2017-Nov-17 00:00N 29°44' W 095°02'2 4.6
2017-Nov-16 23:30N 29°42' W 095°00'3 5.1
2017-Nov-16 23:00N 29°40' W 094°59'3 5.3
2017-Nov-16 22:29N 29°37' W 094°58'2 5.0
2017-Nov-16 22:00N 29°35' W 094°56'3 5.3
2017-Nov-16 21:30N 29°33' W 094°55'3 5.6
2017-Nov-16 21:00N 29°31' W 094°53'  

Dump ship's entire track history